Alessandro F — IBVQ — position and weather

sailwx.info

Track history (hours):
 
Tides and Currents Weather Stations Pressure Air Temp Water Temp Dewpoint Dewpoint Depression Visibility Wind Speed Wind Dir Waves Ship Positions

Alessandro F

Last reported at 2014-Aug-21 20:33 UTC. Time now 2014-Sep-01 23:51 UTC.
Position N 36°33' E 015°05'.
Warning: this ship's position is 11 days out of date.

Length 100 m; draft 6.5 m.

Type: Ship. MMSI: 247046400.

Date/timePositionNaut miles runAvg speedWind from/ knotsBaromVisibWave heightAir tempDewpointWater temp
2014-Aug-21 20:33N 36°33' E 015°05'1312.7
2014-Aug-21 19:32N 36°36' E 014°49'1312.9
2014-Aug-21 18:33N 36°39' E 014°34'1312.8
2014-Aug-21 17:33N 36°45' E 014°19'1312.6
2014-Aug-21 16:34N 36°50' E 014°06'1212.5
2014-Aug-21 15:34N 36°56' E 013°52'1212.1
2014-Aug-21 14:33N 37°02' E 013°38'1311.8
2014-Aug-21 13:27N 37°08' E 013°24'1611.9
2014-Aug-21 12:07N 37°15' E 013°06'711.9
2014-Aug-21 11:33N 37°18' E 012°59'14712.3
2014-Aug-20 23:32N 37°34' E 009°54'1313.1
2014-Aug-20 22:33N 37°35' E 009°38'1313.0
2014-Aug-20 21:34N 37°36' E 009°22'1313.2
2014-Aug-20 20:34N 37°36' E 009°05'1312.6
2014-Aug-20 19:31N 37°35' E 008°49'1212.5
2014-Aug-20 18:33N 37°31' E 008°34'82 1.9
2014-Aug-19 00:16N 37°13' E 006°54'2 1.2
2014-Aug-18 22:22N 37°12' E 006°57'254 5.2
2014-Aug-16 21:20N 40°34' E 003°41'1112.7
2014-Aug-16 20:29N 40°38' E 003°28'1311.9
2014-Aug-16 19:25N 40°45' E 003°13'1012.0
2014-Aug-16 18:33N 40°51' E 003°02'48 2.0
2014-Aug-15 18:33N 41°20' E 002°12'0 0.0
2014-Aug-15 16:20N 41°20' E 002°12'0 0.0
2014-Aug-15 15:28N 41°20' E 002°12'0 0.0
2014-Aug-15 14:33N 41°20' E 002°12'0 0.0
2014-Aug-15 13:13N 41°20' E 002°12'0 0.0
2014-Aug-15 12:32N 41°20' E 002°12'0 0.0
2014-Aug-15 11:32N 41°20' E 002°11'0 0.0
2014-Aug-15 10:33N 41°20' E 002°11'0 0.0
2014-Aug-15 09:32N 41°20' E 002°12'0 0.0
2014-Aug-15 08:34N 41°20' E 002°12'0 0.0
2014-Aug-15 07:33N 41°20' E 002°12'0 0.0
2014-Aug-15 03:18N 41°20' E 002°12'0 0.1
2014-Aug-15 02:13N 41°20' E 002°12'0 0.0
2014-Aug-15 01:34N 41°20' E 002°12'0 0.0
2014-Aug-15 00:33N 41°20' E 002°12'0 0.0
2014-Aug-14 23:28N 41°20' E 002°12'0 0.0
2014-Aug-14 22:33N 41°20' E 002°12'0 0.0
2014-Aug-14 21:33N 41°20' E 002°12'0 0.0
2014-Aug-14 20:33N 41°20' E 002°12'160 7.0
2014-Aug-13 21:34N 39°26' W 000°17'2 0.2
2014-Aug-13 12:33N 39°27' W 000°19'3 2.7
2014-Aug-13 11:26N 39°24' W 000°16'  
Track history (hours):
 
Tides and Currents Weather Stations Pressure Air Temp Water Temp Dewpoint Dewpoint Depression Visibility Wind Speed Wind Dir Waves Ship Positions

Alessandro F

Last reported at 2014-Aug-21 20:33 UTC. Time now 2014-Sep-01 23:51 UTC.
Position N 36°33' E 015°05'.
Warning: this ship's position is 11 days out of date.

Length 100 m; draft 6.5 m.

Type: Ship. MMSI: 247046400.

Date/timePositionNaut miles runAvg speedWind from/ knotsBaromVisibWave heightAir tempDewpointWater temp
2014-Aug-21 20:33N 36°33' E 015°05'1312.7
2014-Aug-21 19:32N 36°36' E 014°49'1312.9
2014-Aug-21 18:33N 36°39' E 014°34'1312.8
2014-Aug-21 17:33N 36°45' E 014°19'1312.6
2014-Aug-21 16:34N 36°50' E 014°06'1212.5
2014-Aug-21 15:34N 36°56' E 013°52'1212.1
2014-Aug-21 14:33N 37°02' E 013°38'1311.8
2014-Aug-21 13:27N 37°08' E 013°24'1611.9
2014-Aug-21 12:07N 37°15' E 013°06'711.9
2014-Aug-21 11:33N 37°18' E 012°59'14712.3
2014-Aug-20 23:32N 37°34' E 009°54'1313.1
2014-Aug-20 22:33N 37°35' E 009°38'1313.0
2014-Aug-20 21:34N 37°36' E 009°22'1313.2
2014-Aug-20 20:34N 37°36' E 009°05'1312.6
2014-Aug-20 19:31N 37°35' E 008°49'1212.5
2014-Aug-20 18:33N 37°31' E 008°34'82 1.9
2014-Aug-19 00:16N 37°13' E 006°54'2 1.2
2014-Aug-18 22:22N 37°12' E 006°57'254 5.2
2014-Aug-16 21:20N 40°34' E 003°41'1112.7
2014-Aug-16 20:29N 40°38' E 003°28'1311.9
2014-Aug-16 19:25N 40°45' E 003°13'1012.0
2014-Aug-16 18:33N 40°51' E 003°02'48 2.0
2014-Aug-15 18:33N 41°20' E 002°12'0 0.0
2014-Aug-15 16:20N 41°20' E 002°12'0 0.0
2014-Aug-15 15:28N 41°20' E 002°12'0 0.0
2014-Aug-15 14:33N 41°20' E 002°12'0 0.0
2014-Aug-15 13:13N 41°20' E 002°12'0 0.0
2014-Aug-15 12:32N 41°20' E 002°12'0 0.0
2014-Aug-15 11:32N 41°20' E 002°11'0 0.0
2014-Aug-15 10:33N 41°20' E 002°11'0 0.0
2014-Aug-15 09:32N 41°20' E 002°12'0 0.0
2014-Aug-15 08:34N 41°20' E 002°12'0 0.0
2014-Aug-15 07:33N 41°20' E 002°12'0 0.0
2014-Aug-15 03:18N 41°20' E 002°12'0 0.1
2014-Aug-15 02:13N 41°20' E 002°12'0 0.0
2014-Aug-15 01:34N 41°20' E 002°12'0 0.0
2014-Aug-15 00:33N 41°20' E 002°12'0 0.0
2014-Aug-14 23:28N 41°20' E 002°12'0 0.0
2014-Aug-14 22:33N 41°20' E 002°12'0 0.0
2014-Aug-14 21:33N 41°20' E 002°12'0 0.0
2014-Aug-14 20:33N 41°20' E 002°12'160 7.0
2014-Aug-13 21:34N 39°26' W 000°17'2 0.2
2014-Aug-13 12:33N 39°27' W 000°19'3 2.7
2014-Aug-13 11:26N 39°24' W 000°16'  

Dump ship's entire track history